createdAt,value
2018-09-06T00:01:44.746Z,73.00
2018-09-06T00:04:13.763Z,72.80
2018-09-06T00:06:43.004Z,72.80
2018-09-06T00:09:12.407Z,72.70
2018-09-06T00:11:42.344Z,72.50
2018-09-06T00:14:12.126Z,73.00
2018-09-06T00:16:41.034Z,73.10
2018-09-06T00:19:10.741Z,72.90
2018-09-06T00:21:39.597Z,72.60
2018-09-06T00:24:08.589Z,73.30
2018-09-06T00:26:37.895Z,72.60
2018-09-06T00:29:06.821Z,72.10
2018-09-06T00:31:37.043Z,71.90
2018-09-06T00:34:06.672Z,71.90
2018-09-06T00:36:35.338Z,71.90
2018-09-06T00:39:04.885Z,72.20
2018-09-06T00:41:33.651Z,72.30
2018-09-06T00:44:02.639Z,72.30
2018-09-06T00:46:32.864Z,72.40
2018-09-06T00:49:02.072Z,72.60
2018-09-06T00:51:32.548Z,72.60
2018-09-06T00:54:02.503Z,72.70
2018-09-06T00:56:32.631Z,72.70
2018-09-06T00:59:02.447Z,72.70
2018-09-06T01:01:31.135Z,72.50
2018-09-06T01:04:00.636Z,72.70
2018-09-06T01:06:30.547Z,72.50
2018-09-06T01:09:00.343Z,72.30
2018-09-06T01:11:29.129Z,72.50
2018-09-06T01:13:57.781Z,72.40
2018-09-06T01:16:26.323Z,72.20
2018-09-06T01:18:55.095Z,72.10
2018-09-06T01:21:25.276Z,72.10
2018-09-06T01:23:54.164Z,72.30
2018-09-06T01:26:23.543Z,71.90
2018-09-06T01:28:52.456Z,72.00
2018-09-06T01:31:21.763Z,71.80
2018-09-06T01:33:51.123Z,71.50
2018-09-06T01:36:26.213Z,72.30
2018-09-06T01:38:56.172Z,72.30
2018-09-06T01:41:25.167Z,72.30
2018-09-06T01:43:55.580Z,72.30
2018-09-06T01:46:24.589Z,72.20
2018-09-06T01:48:55.230Z,72.10
2018-09-06T01:51:23.777Z,72.40
2018-09-06T01:53:54.014Z,72.50
2018-09-06T01:56:22.860Z,72.60
2018-09-06T01:58:51.923Z,72.50
2018-09-06T02:01:20.957Z,72.80
2018-09-06T02:03:50.342Z,72.60
2018-09-06T02:06:19.291Z,72.70
2018-09-06T02:08:47.941Z,72.50
2018-09-06T02:11:17.235Z,72.80
2018-09-06T02:13:46.202Z,72.30
2018-09-06T02:16:14.909Z,72.30
2018-09-06T02:18:43.731Z,72.10
2018-09-06T02:21:12.353Z,72.40
2018-09-06T02:23:41.085Z,72.60
2018-09-06T02:26:09.885Z,72.60
2018-09-06T02:28:39.878Z,72.70
2018-09-06T02:31:08.488Z,72.40
2018-09-06T02:33:37.597Z,72.30
2018-09-06T02:36:06.453Z,72.50
2018-09-06T02:38:35.593Z,72.60
2018-09-06T02:41:04.492Z,72.60
2018-09-06T02:43:33.392Z,72.40
2018-09-06T02:46:02.183Z,72.80
2018-09-06T02:48:36.393Z,73.10
2018-09-06T02:51:10.796Z,73.00
2018-09-06T02:53:39.827Z,73.10
2018-09-06T02:56:08.678Z,72.80
2018-09-06T02:58:37.447Z,72.40
2018-09-06T03:01:06.103Z,72.60
2018-09-06T03:03:34.739Z,73.00
2018-09-06T03:06:04.140Z,72.90
2018-09-06T03:08:32.895Z,73.00
2018-09-06T03:12:05.513Z,72.60
2018-09-06T03:14:34.471Z,72.70
2018-09-06T03:17:03.096Z,72.90
2018-09-06T03:19:32.032Z,73.10
2018-09-06T03:22:00.723Z,72.70
2018-09-06T03:24:29.367Z,72.80
2018-09-06T03:26:58.050Z,72.70
2018-09-06T03:29:26.628Z,72.80
2018-09-06T03:31:55.245Z,73.00
2018-09-06T03:34:23.939Z,73.00
2018-09-06T03:36:52.549Z,72.70
2018-09-06T03:39:21.505Z,72.30
2018-09-06T03:41:50.245Z,72.00
2018-09-06T03:44:18.815Z,72.00
2018-09-06T03:46:47.511Z,72.00
2018-09-06T03:49:16.092Z,71.90
2018-09-06T03:51:44.833Z,72.10
2018-09-06T03:54:13.432Z,72.00
2018-09-06T03:56:42.099Z,72.10
2018-09-06T03:59:10.792Z,72.20
2018-09-06T04:01:39.402Z,72.00
2018-09-06T04:04:08.023Z,71.80
2018-09-06T04:06:36.595Z,71.60
2018-09-06T04:09:08.274Z,71.60
2018-09-06T04:11:37.813Z,71.70
2018-09-06T04:14:06.803Z,71.60
2018-09-06T04:16:36.661Z,72.00
2018-09-06T04:19:05.918Z,72.00
2018-09-06T04:21:34.803Z,72.10
2018-09-06T04:24:03.705Z,72.20
2018-09-06T04:26:32.769Z,71.90
2018-09-06T04:29:01.616Z,71.80
2018-09-06T04:31:30.740Z,71.40
2018-09-06T04:33:59.695Z,71.60
2018-09-06T04:36:28.355Z,71.50
2018-09-06T04:38:56.990Z,71.20
2018-09-06T04:41:25.706Z,71.70
2018-09-06T04:43:54.367Z,71.20
2018-09-06T04:46:23.332Z,71.40
2018-09-06T04:48:52.128Z,71.30
2018-09-06T04:51:20.700Z,71.30
2018-09-06T04:53:49.633Z,71.50
2018-09-06T04:56:18.323Z,71.30
2018-09-06T04:58:46.903Z,71.40
2018-09-06T05:01:15.528Z,71.30
2018-09-06T05:03:44.152Z,71.40
2018-09-06T05:06:12.796Z,71.50
2018-09-06T05:08:41.401Z,71.40
2018-09-06T05:11:10.234Z,71.30
2018-09-06T05:13:39.113Z,71.10
2018-09-06T05:16:08.024Z,71.10
2018-09-06T05:18:36.699Z,71.10
2018-09-06T05:21:05.884Z,71.30
2018-09-06T05:23:34.427Z,71.40
2018-09-06T05:26:03.005Z,71.20
2018-09-06T05:28:32.043Z,71.40
2018-09-06T05:31:00.615Z,71.50
2018-09-06T05:33:29.371Z,71.20
2018-09-06T05:35:58.268Z,71.00
2018-09-06T05:38:26.803Z,70.90
2018-09-06T05:40:56.912Z,70.60
2018-09-06T05:43:25.857Z,70.40
2018-09-06T05:45:54.594Z,70.40
2018-09-06T05:48:24.099Z,70.50
2018-09-06T05:50:52.681Z,71.40
2018-09-06T05:53:21.806Z,70.90
2018-09-06T05:55:50.608Z,70.90
2018-09-06T05:58:20.651Z,70.90
2018-09-06T06:00:50.286Z,70.90
2018-09-06T06:03:19.812Z,71.00
2018-09-06T06:05:48.635Z,70.70
2018-09-06T06:08:28.428Z,70.80
2018-09-06T06:10:57.375Z,70.70
2018-09-06T06:13:26.280Z,70.60
2018-09-06T06:15:55.335Z,70.20
2018-09-06T06:18:23.943Z,70.30
2018-09-06T06:20:52.860Z,70.40
2018-09-06T06:23:22.774Z,70.60
2018-09-06T06:25:51.822Z,70.80
2018-09-06T06:28:21.164Z,70.90
2018-09-06T06:30:50.405Z,71.10
2018-09-06T06:33:20.929Z,71.10
2018-09-06T06:35:49.869Z,71.40
2018-09-06T06:38:18.813Z,70.90
2018-09-06T06:40:47.412Z,71.00
2018-09-06T06:43:16.257Z,71.00
2018-09-06T06:45:45.924Z,70.90
2018-09-06T06:48:15.401Z,70.70
2018-09-06T06:50:46.343Z,70.60
2018-09-06T06:53:15.967Z,70.40
2018-09-06T06:55:44.784Z,70.20
2018-09-06T06:58:13.492Z,70.30
2018-09-06T07:00:43.310Z,70.30
2018-09-06T07:03:14.261Z,70.30
2018-09-06T07:05:44.609Z,70.10
2018-09-06T07:08:14.127Z,70.10
2018-09-06T07:10:42.807Z,70.00
2018-09-06T07:15:55.203Z,70.00
2018-09-06T07:18:24.307Z,70.10
2018-09-06T07:20:53.165Z,70.70
2018-09-06T07:23:21.856Z,69.90
2018-09-06T07:25:51.027Z,70.00
2018-09-06T07:28:20.372Z,69.80
2018-09-06T07:30:49.307Z,69.50
2018-09-06T07:33:18.288Z,69.50
2018-09-06T07:35:46.986Z,69.20
2018-09-06T07:38:16.283Z,68.70
2018-09-06T07:40:44.976Z,68.40
2018-09-06T07:43:13.941Z,67.90
2018-09-06T07:45:43.442Z,67.50
2018-09-06T07:48:12.147Z,67.50
2018-09-06T07:50:41.298Z,67.40
2018-09-06T07:53:09.913Z,67.40
2018-09-06T07:55:38.585Z,67.00
2018-09-06T07:58:07.624Z,66.90
2018-09-06T08:00:40.319Z,66.60
2018-09-06T08:03:09.187Z,66.30
2018-09-06T08:05:37.813Z,66.20
2018-09-06T08:08:07.242Z,65.80
2018-09-06T08:10:38.018Z,65.60
2018-09-06T08:13:07.138Z,65.60
2018-09-06T08:15:36.267Z,65.50
2018-09-06T08:18:05.294Z,65.30
2018-09-06T08:20:34.594Z,65.20
2018-09-06T08:23:03.467Z,65.10
2018-09-06T08:25:32.820Z,65.00
2018-09-06T08:28:01.657Z,64.80
2018-09-06T08:30:30.708Z,64.60
2018-09-06T08:32:59.380Z,64.50
2018-09-06T08:35:28.060Z,64.40
2018-09-06T08:37:56.795Z,64.30
2018-09-06T08:40:26.798Z,64.30
2018-09-06T08:42:56.156Z,64.20
2018-09-06T08:45:25.465Z,63.50
2018-09-06T08:47:54.046Z,62.90
2018-09-06T08:50:23.317Z,62.60
2018-09-06T08:52:51.908Z,62.20
2018-09-06T08:55:20.575Z,61.90
2018-09-06T08:57:49.806Z,61.60
2018-09-06T09:00:18.389Z,62.30
2018-09-06T09:02:48.084Z,61.70
2018-09-06T09:05:17.840Z,61.70
2018-09-06T09:07:46.433Z,61.70
2018-09-06T09:10:15.164Z,61.30
2018-09-06T09:12:44.462Z,60.90
2018-09-06T09:15:14.342Z,60.80
2018-09-06T09:17:43.205Z,60.90
2018-09-06T09:20:12.317Z,60.90
2018-09-06T09:22:41.644Z,61.00
2018-09-06T09:25:11.229Z,60.60
2018-09-06T09:27:41.025Z,60.10
2018-09-06T09:30:09.941Z,60.30
2018-09-06T09:32:39.218Z,60.10
2018-09-06T09:35:08.479Z,59.90
2018-09-06T09:37:37.202Z,59.90
2018-09-06T09:40:06.992Z,59.90
2018-09-06T09:42:35.591Z,59.90
2018-09-06T09:45:05.114Z,59.80
2018-09-06T09:50:02.030Z,60.70
2018-09-06T09:52:31.655Z,60.50
2018-09-06T09:55:00.439Z,60.30
2018-09-06T09:57:29.276Z,60.20
2018-09-06T09:59:58.633Z,60.40
2018-09-06T10:02:33.879Z,60.30
2018-09-06T10:05:08.394Z,60.70
2018-09-06T10:07:42.447Z,59.80
2018-09-06T10:10:12.095Z,59.40
2018-09-06T10:12:41.772Z,59.50
2018-09-06T10:15:10.921Z,59.60
2018-09-06T10:17:39.608Z,59.70
2018-09-06T10:20:09.031Z,59.90
2018-09-06T10:22:37.738Z,59.60
2018-09-06T10:25:06.751Z,59.20
2018-09-06T10:27:37.156Z,60.00
2018-09-06T10:30:06.095Z,60.40
2018-09-06T10:32:34.747Z,59.60
2018-09-06T10:35:04.096Z,58.60
2018-09-06T10:37:33.241Z,58.30
2018-09-06T10:40:04.827Z,59.00
2018-09-06T10:42:33.722Z,59.10
2018-09-06T10:45:02.784Z,59.10
2018-09-06T10:47:38.104Z,58.90
2018-09-06T10:50:07.038Z,59.30
2018-09-06T10:52:35.793Z,58.00
2018-09-06T10:55:04.602Z,58.50
2018-09-06T10:57:33.341Z,58.60
2018-09-06T11:00:03.164Z,58.60
2018-09-06T11:02:32.063Z,58.50
2018-09-06T11:05:01.446Z,58.60
2018-09-06T11:07:30.969Z,58.80
2018-09-06T11:10:01.151Z,58.30
2018-09-06T11:12:29.913Z,57.70
2018-09-06T11:14:58.569Z,57.80
2018-09-06T11:17:27.403Z,58.00
2018-09-06T11:19:56.511Z,58.10
2018-09-06T11:22:25.345Z,58.30
2018-09-06T11:24:56.161Z,57.90
2018-09-06T11:27:24.962Z,58.60
2018-09-06T11:29:54.351Z,58.30
2018-09-06T11:32:23.062Z,58.10
2018-09-06T11:34:51.880Z,57.80
2018-09-06T11:37:20.604Z,57.70
2018-09-06T11:39:49.296Z,57.70
2018-09-06T11:42:17.976Z,57.80
2018-09-06T11:44:47.446Z,58.10
2018-09-06T11:47:17.356Z,58.30
2018-09-06T11:49:45.824Z,57.60
2018-09-06T11:52:14.843Z,58.00
2018-09-06T11:54:46.112Z,57.90
2018-09-06T11:57:15.067Z,58.00
2018-09-06T11:59:44.526Z,58.10
2018-09-06T12:02:14.075Z,57.80
2018-09-06T12:04:43.579Z,57.70
2018-09-06T12:07:12.619Z,57.50
2018-09-06T12:09:42.242Z,57.70
2018-09-06T12:12:11.400Z,58.10
2018-09-06T12:14:40.817Z,58.00
2018-09-06T12:17:09.950Z,58.00
2018-09-06T12:19:39.591Z,57.80
2018-09-06T12:22:09.155Z,57.70
2018-09-06T12:24:38.507Z,57.20
2018-09-06T12:27:07.400Z,56.70
2018-09-06T12:29:36.226Z,57.40
2018-09-06T12:32:05.474Z,57.40
2018-09-06T12:34:34.405Z,57.10
2018-09-06T12:37:04.115Z,56.80
2018-09-06T12:39:33.630Z,56.90
2018-09-06T12:42:02.627Z,56.60
2018-09-06T12:44:31.724Z,56.80
2018-09-06T12:47:00.872Z,56.30
2018-09-06T12:49:30.008Z,56.20
2018-09-06T12:51:58.712Z,55.80
2018-09-06T12:54:27.648Z,55.80
2018-09-06T12:56:56.548Z,55.00
2018-09-06T12:59:25.568Z,55.80
2018-09-06T13:01:54.446Z,55.30
2018-09-06T13:04:24.564Z,56.30
2018-09-06T13:06:53.858Z,55.50
2018-09-06T13:09:22.688Z,55.40
2018-09-06T13:11:52.407Z,55.10
2018-09-06T13:14:21.982Z,54.90
2018-09-06T13:16:52.034Z,54.20
2018-09-06T13:19:21.270Z,54.20
2018-09-06T13:21:50.227Z,55.30
2018-09-06T13:24:19.205Z,55.60
2018-09-06T13:26:48.918Z,56.30
2018-09-06T13:29:18.106Z,59.30
2018-09-06T13:31:47.127Z,65.70
2018-09-06T13:34:17.395Z,68.40
2018-09-06T13:36:46.854Z,76.90
2018-09-06T13:39:15.547Z,84.20
2018-09-06T13:41:44.720Z,85.00
2018-09-06T13:44:13.695Z,86.20
2018-09-06T13:46:42.447Z,87.00
2018-09-06T13:49:11.614Z,86.70
2018-09-06T13:51:40.574Z,85.40
2018-09-06T13:54:09.891Z,83.80
2018-09-06T13:56:38.595Z,83.70
2018-09-06T13:59:07.847Z,84.00
2018-09-06T14:01:42.206Z,83.80
2018-09-06T14:04:11.056Z,84.20
2018-09-06T14:06:40.073Z,84.70
2018-09-06T14:09:08.916Z,85.20
2018-09-06T14:11:38.058Z,85.80
2018-09-06T14:14:07.047Z,86.50
2018-09-06T14:16:35.670Z,85.70
2018-09-06T14:19:04.702Z,86.00
2018-09-06T14:21:33.773Z,86.30
2018-09-06T14:24:03.093Z,86.50
2018-09-06T14:26:31.847Z,85.80
2018-09-06T14:29:00.896Z,84.90
2018-09-06T14:31:29.982Z,84.20
2018-09-06T14:33:58.601Z,83.90
2018-09-06T14:36:27.336Z,84.60
2018-09-06T14:38:56.400Z,85.50
2018-09-06T14:41:25.216Z,86.70
2018-09-06T14:43:54.082Z,87.00
2018-09-06T14:46:24.323Z,86.70
2018-09-06T14:48:53.263Z,86.00
2018-09-06T14:51:22.335Z,87.40
2018-09-06T14:53:50.948Z,86.80
2018-09-06T14:56:20.547Z,87.50
2018-09-06T14:58:49.438Z,88.20
2018-09-06T15:01:18.319Z,87.90
2018-09-06T15:03:47.347Z,86.70
2018-09-06T15:06:16.528Z,86.60
2018-09-06T15:08:45.406Z,86.70
2018-09-06T15:11:14.457Z,86.70
2018-09-06T15:13:43.471Z,86.90
2018-09-06T15:16:12.390Z,87.90
2018-09-06T15:18:41.490Z,86.80
2018-09-06T15:21:10.191Z,86.50
2018-09-06T15:23:39.715Z,86.60
2018-09-06T15:26:08.340Z,87.00
2018-09-06T15:28:37.016Z,86.60
2018-09-06T15:31:06.986Z,85.00
2018-09-06T15:33:35.615Z,84.70
2018-09-06T15:36:04.207Z,85.20
2018-09-06T15:38:32.835Z,85.70
2018-09-06T15:41:01.508Z,85.90
2018-09-06T15:43:30.104Z,86.00
2018-09-06T15:45:58.895Z,85.90
2018-09-06T15:48:27.668Z,85.70
2018-09-06T15:50:56.763Z,85.40
2018-09-06T15:53:25.613Z,85.40
2018-09-06T15:55:55.543Z,85.10
2018-09-06T15:58:24.091Z,85.00
2018-09-06T16:00:52.691Z,85.00
2018-09-06T16:03:21.236Z,85.20
2018-09-06T16:05:49.770Z,85.30
2018-09-06T16:08:18.324Z,85.50
2018-09-06T16:10:46.924Z,85.70
2018-09-06T16:13:15.921Z,85.70
2018-09-06T16:15:44.996Z,85.90
2018-09-06T16:18:15.878Z,86.00
2018-09-06T16:20:45.096Z,85.30
2018-09-06T16:23:13.792Z,85.20
2018-09-06T16:25:42.489Z,85.10
2018-09-06T16:28:11.571Z,85.00
2018-09-06T16:30:45.324Z,84.80
2018-09-06T16:33:14.191Z,84.30
2018-09-06T16:35:42.912Z,84.20
2018-09-06T16:38:11.699Z,84.20
2018-09-06T16:40:40.248Z,85.30
2018-09-06T16:43:08.909Z,85.00
2018-09-06T16:45:37.720Z,84.90
2018-09-06T16:48:06.931Z,84.90
2018-09-06T16:50:35.731Z,85.00
2018-09-06T16:53:04.437Z,84.50
2018-09-06T16:55:33.167Z,84.30
2018-09-06T16:58:02.212Z,84.30
2018-09-06T17:00:30.860Z,83.80
2018-09-06T17:02:59.924Z,83.90
2018-09-06T17:05:28.544Z,84.10
2018-09-06T17:07:57.245Z,84.50
2018-09-06T17:10:26.926Z,84.50
2018-09-06T17:12:56.041Z,84.30
2018-09-06T17:15:24.670Z,84.20
2018-09-06T17:17:53.576Z,84.10
2018-09-06T17:20:23.414Z,84.00
2018-09-06T17:22:52.646Z,84.10
2018-09-06T17:25:21.233Z,84.30
2018-09-06T17:27:50.295Z,85.30
2018-09-06T17:30:19.112Z,84.40
2018-09-06T17:32:48.149Z,84.20
2018-09-06T17:35:17.320Z,84.10
2018-09-06T17:37:46.051Z,84.10
2018-09-06T17:40:14.607Z,86.40
2018-09-06T17:42:43.654Z,84.50
2018-09-06T17:45:14.067Z,84.50
2018-09-06T17:47:43.562Z,84.70
2018-09-06T17:50:12.088Z,85.00
2018-09-06T17:52:41.287Z,84.50
2018-09-06T17:55:10.058Z,81.70
2018-09-06T17:57:39.410Z,80.70
2018-09-06T18:00:08.405Z,80.30
2018-09-06T18:02:37.076Z,80.20
2018-09-06T18:05:05.711Z,80.30
2018-09-06T18:07:34.636Z,80.40
2018-09-06T18:10:03.335Z,80.30
2018-09-06T18:12:32.792Z,80.80
2018-09-06T18:15:01.508Z,81.50
2018-09-06T18:17:30.905Z,81.00
2018-09-06T18:19:59.812Z,80.60
2018-09-06T18:22:29.725Z,81.20
2018-09-06T18:24:58.375Z,81.80
2018-09-06T18:27:29.523Z,81.90
2018-09-06T18:29:59.778Z,82.10
2018-09-06T18:32:29.488Z,82.00
2018-09-06T18:34:58.808Z,82.30
2018-09-06T18:37:27.926Z,82.50
2018-09-06T18:39:56.744Z,83.00
2018-09-06T18:42:25.369Z,83.00
2018-09-06T18:44:54.444Z,82.70
2018-09-06T18:47:23.203Z,82.50
2018-09-06T18:49:52.079Z,82.50
2018-09-06T18:52:20.687Z,82.70
2018-09-06T18:54:49.262Z,83.30
2018-09-06T18:57:17.892Z,82.60
2018-09-06T18:59:46.513Z,82.50
2018-09-06T19:02:15.324Z,82.60
2018-09-06T19:04:44.869Z,82.60
2018-09-06T19:07:14.905Z,82.80
2018-09-06T19:09:43.643Z,82.90
2018-09-06T19:12:12.443Z,82.00
2018-09-06T19:14:41.020Z,82.40
2018-09-06T19:17:09.675Z,82.90
2018-09-06T19:19:38.332Z,83.30
2018-09-06T19:22:07.531Z,83.80
2018-09-06T19:24:36.615Z,83.60
2018-09-06T19:27:05.885Z,83.50
2018-09-06T19:29:35.662Z,84.20
2018-09-06T19:32:04.974Z,84.90
2018-09-06T19:34:33.493Z,85.10
2018-09-06T19:37:02.023Z,85.50
2018-09-06T19:39:30.999Z,85.70
2018-09-06T19:42:00.101Z,85.70
2018-09-06T19:44:28.755Z,85.60
2018-09-06T19:46:57.478Z,85.20
2018-09-06T19:49:26.042Z,85.30
2018-09-06T19:51:54.618Z,85.40
2018-09-06T19:54:23.316Z,85.30
2018-09-06T19:56:51.906Z,85.60
2018-09-06T19:59:20.636Z,86.50
2018-09-06T20:01:49.862Z,85.90
2018-09-06T20:04:18.520Z,85.80
2018-09-06T20:06:47.787Z,85.30
2018-09-06T20:09:16.725Z,85.10
2018-09-06T20:11:45.387Z,85.10
2018-09-06T20:14:13.960Z,85.20
2018-09-06T20:16:42.619Z,84.80
2018-09-06T20:19:11.340Z,85.10
2018-09-06T20:21:39.977Z,85.20
2018-09-06T20:24:09.298Z,84.70
2018-09-06T20:26:37.991Z,84.90
2018-09-06T20:29:06.736Z,85.20
2018-09-06T20:31:35.594Z,84.90
2018-09-06T20:34:04.147Z,84.70
2018-09-06T20:36:33.036Z,85.10
2018-09-06T20:39:01.598Z,84.90
2018-09-06T20:41:30.266Z,85.00
2018-09-06T20:43:59.052Z,84.90
2018-09-06T20:46:27.768Z,85.20
2018-09-06T20:48:56.350Z,85.30
2018-09-06T20:51:24.975Z,85.20
2018-09-06T20:53:53.612Z,85.20
2018-09-06T20:56:22.651Z,84.50
2018-09-06T20:58:51.606Z,84.50
2018-09-06T21:01:20.366Z,84.40
2018-09-06T21:03:49.239Z,84.50
2018-09-06T21:06:17.850Z,84.10
2018-09-06T21:08:46.752Z,84.10
2018-09-06T21:11:15.583Z,84.40
2018-09-06T21:13:44.216Z,83.50
2018-09-06T21:16:13.492Z,83.60
2018-09-06T21:18:42.014Z,84.20
2018-09-06T21:21:10.999Z,83.70
2018-09-06T21:23:39.532Z,83.70
2018-09-06T21:26:08.232Z,83.80
2018-09-06T21:28:36.847Z,83.60
2018-09-06T21:31:05.543Z,83.60
2018-09-06T21:33:34.118Z,83.50
2018-09-06T21:36:03.696Z,83.20
2018-09-06T21:38:32.225Z,83.50
2018-09-06T21:41:00.797Z,83.00
2018-09-06T21:43:29.431Z,83.40
2018-09-06T21:45:57.998Z,83.50
2018-09-06T21:48:26.627Z,83.50
2018-09-06T21:50:55.234Z,83.30
2018-09-06T21:53:24.599Z,83.40
2018-09-06T21:55:53.244Z,82.80
2018-09-06T21:58:21.911Z,83.00
2018-09-06T22:00:51.276Z,83.30
2018-09-06T22:03:25.769Z,82.90
2018-09-06T22:05:54.588Z,83.10
2018-09-06T22:08:23.479Z,82.90
2018-09-06T22:10:52.583Z,82.90
2018-09-06T22:13:21.199Z,83.20
2018-09-06T22:15:49.907Z,83.10
2018-09-06T22:18:18.531Z,83.10
2018-09-06T22:20:47.160Z,83.00
2018-09-06T22:23:16.375Z,82.80
2018-09-06T22:25:45.256Z,83.30
2018-09-06T22:28:13.841Z,83.10
2018-09-06T22:30:42.423Z,83.20
2018-09-06T22:33:11.145Z,83.00
2018-09-06T22:35:39.744Z,82.60
2018-09-06T22:38:09.542Z,82.60
2018-09-06T22:40:38.687Z,82.90
2018-09-06T22:43:07.427Z,82.80
2018-09-06T22:45:36.241Z,82.70
2018-09-06T22:48:05.323Z,82.80
2018-09-06T22:50:33.916Z,82.80
2018-09-06T22:53:03.813Z,82.50
2018-09-06T22:55:32.818Z,82.50
2018-09-06T22:58:01.440Z,82.40
2018-09-06T23:00:31.683Z,82.50
2018-09-06T23:03:06.612Z,82.60
2018-09-06T23:05:35.670Z,82.50
2018-09-06T23:08:04.353Z,82.50
2018-09-06T23:10:33.036Z,82.80
2018-09-06T23:13:01.950Z,82.60
2018-09-06T23:15:30.615Z,82.70
2018-09-06T23:17:59.382Z,81.30
2018-09-06T23:20:28.167Z,82.70
2018-09-06T23:22:56.944Z,82.70
2018-09-06T23:25:26.379Z,82.50
2018-09-06T23:27:55.530Z,82.20
2018-09-06T23:30:24.352Z,82.00
2018-09-06T23:32:53.031Z,82.50
2018-09-06T23:35:21.926Z,82.40
2018-09-06T23:37:50.688Z,82.70
2018-09-06T23:40:19.288Z,82.60
2018-09-06T23:42:47.838Z,82.70
2018-09-06T23:45:17.300Z,82.40
2018-09-06T23:47:46.200Z,82.10
2018-09-06T23:50:15.741Z,82.10
2018-09-06T23:52:44.368Z,82.10
2018-09-06T23:55:12.916Z,82.40
2018-09-06T23:57:41.433Z,82.40
